createdAt,value
2023-03-25T00:00:16.825Z,1.05
2023-03-25T00:02:49.362Z,0.82
2023-03-25T00:05:18.364Z,1.05
2023-03-25T00:07:48.296Z,0.82
2023-03-25T00:10:15.514Z,0.95
2023-03-25T00:12:42.768Z,0.60
2023-03-25T00:15:12.021Z,0.57
2023-03-25T00:17:39.344Z,0.80
2023-03-25T00:20:09.376Z,0.80
2023-03-25T00:22:41.334Z,1.10
2023-03-25T00:25:17.157Z,1.00
2023-03-25T00:27:59.740Z,1.02
2023-03-25T00:30:26.496Z,0.70
2023-03-25T00:32:53.382Z,1.08
2023-03-25T00:35:20.857Z,1.00
2023-03-25T00:37:59.970Z,1.20
2023-03-25T00:40:28.658Z,0.82
2023-03-25T00:42:56.408Z,0.82
2023-03-25T00:45:23.728Z,0.80
2023-03-25T00:47:50.546Z,1.25
2023-03-25T00:50:17.293Z,0.80
2023-03-25T00:52:43.860Z,1.17
2023-03-25T00:55:10.469Z,0.90
2023-03-25T00:57:37.499Z,0.95
2023-03-25T01:00:11.231Z,1.23
2023-03-25T01:02:39.513Z,0.57
2023-03-25T01:05:07.156Z,1.10
2023-03-25T01:07:34.517Z,1.05
2023-03-25T01:10:01.870Z,0.88
2023-03-25T01:12:28.460Z,0.90
2023-03-25T01:14:55.297Z,1.15
2023-03-25T01:17:22.047Z,0.70
2023-03-25T01:19:48.686Z,1.17
2023-03-25T01:22:15.464Z,1.30
2023-03-25T01:24:42.109Z,0.90
2023-03-25T01:27:08.665Z,0.90
2023-03-25T01:29:35.250Z,1.00
2023-03-25T01:32:01.789Z,1.13
2023-03-25T01:34:28.370Z,0.80
2023-03-25T01:36:55.608Z,0.90
2023-03-25T01:39:22.823Z,1.00
2023-03-25T01:41:51.461Z,1.10
2023-03-25T01:44:21.883Z,0.88
2023-03-25T01:46:53.306Z,0.70
2023-03-25T01:49:30.248Z,0.90
2023-03-25T01:52:03.068Z,1.55
2023-03-25T01:54:29.782Z,1.20
2023-03-25T01:56:56.938Z,0.60
2023-03-25T01:59:27.193Z,0.73
2023-03-25T02:01:56.120Z,1.30
2023-03-25T02:04:42.897Z,1.30
2023-03-25T02:07:10.273Z,1.35
2023-03-25T02:09:38.042Z,1.58
2023-03-25T02:12:04.979Z,1.10
2023-03-25T02:14:37.473Z,1.27
2023-03-25T02:17:34.257Z,1.30
2023-03-25T02:20:15.857Z,1.13
2023-03-25T02:28:13.723Z,0.73
2023-03-25T02:31:04.787Z,0.98
2023-03-25T02:33:34.227Z,0.90
2023-03-25T02:36:18.726Z,0.77
2023-03-25T02:38:52.999Z,1.10
2023-03-25T02:41:31.735Z,1.10
2023-03-25T02:44:47.728Z,0.85
2023-03-25T02:47:18.382Z,1.00
2023-03-25T02:50:07.789Z,1.23
2023-03-25T02:52:43.069Z,0.82
2023-03-25T02:55:12.650Z,0.90
2023-03-25T02:57:44.095Z,0.90
2023-03-25T03:00:15.992Z,0.80
2023-03-25T03:02:50.807Z,0.90
2023-03-25T03:05:40.752Z,1.00
2023-03-25T03:08:26.460Z,1.15
2023-03-25T03:10:55.984Z,1.25
2023-03-25T03:13:43.014Z,1.27
2023-03-25T03:16:32.608Z,0.95
2023-03-25T03:19:05.136Z,1.45
2023-03-25T03:21:57.239Z,0.90
2023-03-25T03:24:42.631Z,0.85
2023-03-25T03:27:12.743Z,0.60
2023-03-25T03:29:46.454Z,0.70
2023-03-25T03:32:19.209Z,0.80
2023-03-25T03:34:52.108Z,0.70
2023-03-25T03:37:29.813Z,0.50
2023-03-25T03:39:57.984Z,0.90
2023-03-25T03:42:50.657Z,0.85
2023-03-25T03:45:30.988Z,0.90
2023-03-25T03:48:00.067Z,0.85
2023-03-25T03:50:31.678Z,0.80
2023-03-25T03:53:12.513Z,0.60
2023-03-25T03:55:43.613Z,0.80
2023-03-25T03:58:16.238Z,0.70
2023-03-25T04:00:49.882Z,0.63
2023-03-25T04:03:24.978Z,0.60
2023-03-25T04:06:08.248Z,0.52
2023-03-25T04:08:42.837Z,0.63
2023-03-25T04:11:17.054Z,0.43
2023-03-25T04:13:46.799Z,0.38
2023-03-25T04:16:13.387Z,0.55
2023-03-25T04:18:39.922Z,0.50
2023-03-25T04:21:06.935Z,0.50
2023-03-25T04:23:34.758Z,0.50
2023-03-25T04:26:02.984Z,0.38
2023-03-25T04:28:31.751Z,0.40
2023-03-25T04:31:00.620Z,0.70
2023-03-25T04:33:32.073Z,0.47
2023-03-25T04:36:01.943Z,0.75
2023-03-25T04:38:29.488Z,0.45
2023-03-25T04:40:56.295Z,0.68
2023-03-25T04:43:22.813Z,0.35
2023-03-25T04:45:54.422Z,1.08
2023-03-25T04:48:26.078Z,0.68
2023-03-25T04:50:52.732Z,0.90
2023-03-25T04:53:19.269Z,0.73
2023-03-25T04:55:49.407Z,0.47
2023-03-25T04:58:16.302Z,0.40
2023-03-25T05:00:44.929Z,0.40
2023-03-25T05:03:11.816Z,0.55
2023-03-25T05:05:39.294Z,0.35
2023-03-25T05:08:05.809Z,0.40
2023-03-25T05:10:32.433Z,0.25
2023-03-25T05:13:00.964Z,0.20
2023-03-25T05:15:28.467Z,0.20
2023-03-25T05:17:55.296Z,0.30
2023-03-25T05:20:23.006Z,0.10
2023-03-25T05:22:49.504Z,0.35
2023-03-25T05:25:16.040Z,0.17
2023-03-25T05:27:42.694Z,0.38
2023-03-25T05:30:10.426Z,0.50
2023-03-25T05:32:36.977Z,0.50
2023-03-25T05:35:04.298Z,0.32
2023-03-25T05:37:30.943Z,0.20
2023-03-25T05:39:57.931Z,0.30
2023-03-25T05:42:24.814Z,0.30
2023-03-25T05:44:54.400Z,0.20
2023-03-25T05:47:23.734Z,0.15
2023-03-25T05:49:52.070Z,0.20
2023-03-25T05:52:19.681Z,0.28
2023-03-25T05:54:50.630Z,0.20
2023-03-25T05:57:17.642Z,0.10
2023-03-25T05:59:44.452Z,0.20
2023-03-25T06:02:16.238Z,0.20
2023-03-25T06:04:43.836Z,0.20
2023-03-25T06:07:14.015Z,0.30
2023-03-25T06:09:46.693Z,0.20
2023-03-25T06:12:19.918Z,0.10
2023-03-25T06:14:54.119Z,0.20
2023-03-25T06:17:22.495Z,0.10
2023-03-25T06:19:49.820Z,0.10
2023-03-25T06:22:16.750Z,0.10
2023-03-25T06:24:43.482Z,0.15
2023-03-25T06:27:16.432Z,0.15
2023-03-25T06:29:43.804Z,0.22
2023-03-25T06:32:13.140Z,0.17
2023-03-25T06:34:42.519Z,0.20
2023-03-25T06:39:37.798Z,0.32
2023-03-25T06:42:06.080Z,0.30
2023-03-25T06:44:33.807Z,0.20
2023-03-25T06:47:02.426Z,0.43
2023-03-25T06:49:29.303Z,0.30
2023-03-25T06:51:55.799Z,0.22
2023-03-25T06:54:22.879Z,0.30
2023-03-25T06:56:49.731Z,0.30
2023-03-25T06:59:16.357Z,1.10
2023-03-25T07:01:43.227Z,0.50
2023-03-25T07:04:10.193Z,0.30
2023-03-25T07:06:36.858Z,0.70
2023-03-25T07:09:03.902Z,0.32
2023-03-25T07:11:32.213Z,0.40
2023-03-25T07:13:59.315Z,0.30
2023-03-25T07:16:26.621Z,0.32
2023-03-25T07:18:54.961Z,0.30
2023-03-25T07:21:21.608Z,0.40
2023-03-25T07:23:48.290Z,0.52
2023-03-25T07:26:14.938Z,0.30
2023-03-25T07:28:42.298Z,0.40
2023-03-25T07:31:10.490Z,0.35
2023-03-25T07:33:37.976Z,0.70
2023-03-25T07:36:06.961Z,0.38
2023-03-25T07:38:33.939Z,0.75
2023-03-25T07:41:04.325Z,0.40
2023-03-25T07:43:32.930Z,0.32
2023-03-25T07:45:59.807Z,0.32
2023-03-25T07:48:26.581Z,0.28
2023-03-25T07:50:53.139Z,0.30
2023-03-25T07:53:20.019Z,0.40
2023-03-25T07:55:46.727Z,0.38
2023-03-25T07:58:13.403Z,0.32
2023-03-25T08:00:39.915Z,0.57
2023-03-25T08:03:06.668Z,0.10
2023-03-25T08:05:33.368Z,0.40
2023-03-25T08:08:00.987Z,0.35
2023-03-25T08:10:27.919Z,0.47
2023-03-25T08:12:54.595Z,0.30
2023-03-25T08:15:24.617Z,0.50
2023-03-25T08:17:54.235Z,0.30
2023-03-25T08:20:21.175Z,0.40
2023-03-25T08:22:47.920Z,0.63
2023-03-25T08:25:14.666Z,0.43
2023-03-25T08:27:41.474Z,0.10
2023-03-25T08:30:10.698Z,0.20
2023-03-25T08:32:38.537Z,0.40
2023-03-25T08:35:06.329Z,0.40
2023-03-25T08:37:37.763Z,0.30
2023-03-25T08:40:08.902Z,0.28
2023-03-25T08:42:36.760Z,0.63
2023-03-25T08:45:04.759Z,0.40
2023-03-25T08:47:31.291Z,0.40
2023-03-25T08:49:58.044Z,0.82
2023-03-25T08:52:24.899Z,0.40
2023-03-25T08:54:51.540Z,0.30
2023-03-25T08:57:18.081Z,0.52
2023-03-25T08:59:44.657Z,0.40
2023-03-25T09:02:12.764Z,0.40
2023-03-25T09:04:39.374Z,0.35
2023-03-25T09:07:12.672Z,0.47
2023-03-25T09:09:40.622Z,0.60
2023-03-25T09:12:07.963Z,0.20
2023-03-25T09:14:34.740Z,0.45
2023-03-25T09:17:01.243Z,0.43
2023-03-25T09:19:27.847Z,0.60
2023-03-25T09:21:54.525Z,0.45
2023-03-25T09:24:22.762Z,0.50
2023-03-25T09:26:49.669Z,0.38
2023-03-25T09:29:16.819Z,0.20
2023-03-25T09:31:43.461Z,0.40
2023-03-25T09:34:10.159Z,0.43
2023-03-25T09:36:37.174Z,0.35
2023-03-25T09:39:04.108Z,0.35
2023-03-25T09:41:45.695Z,0.28
2023-03-25T09:44:15.036Z,0.52
2023-03-25T09:49:25.107Z,0.50
2023-03-25T09:51:54.577Z,0.38
2023-03-25T09:54:29.884Z,0.60
2023-03-25T09:57:02.640Z,0.43
2023-03-25T09:59:51.654Z,0.30
2023-03-25T10:02:42.988Z,0.50
2023-03-25T10:05:33.835Z,0.88
2023-03-25T10:08:23.279Z,0.30
2023-03-25T10:11:02.595Z,0.47
2023-03-25T10:13:32.222Z,0.50
2023-03-25T10:16:08.404Z,0.82
2023-03-25T10:19:03.569Z,0.93
2023-03-25T10:21:38.574Z,0.73
2023-03-25T10:24:25.699Z,0.68
2023-03-25T10:27:02.593Z,1.25
2023-03-25T10:29:45.142Z,0.40
2023-03-25T10:32:17.458Z,0.50
2023-03-25T10:34:53.900Z,0.63
2023-03-25T10:37:28.817Z,0.40
2023-03-25T10:40:04.114Z,0.70
2023-03-25T10:42:38.772Z,0.40
2023-03-25T10:45:13.436Z,0.25
2023-03-25T10:47:41.607Z,0.50
2023-03-25T10:50:15.821Z,0.30
2023-03-25T10:52:42.880Z,0.30
2023-03-25T10:55:25.849Z,0.45
2023-03-25T10:57:53.918Z,0.20
2023-03-25T11:00:23.196Z,0.45
2023-03-25T11:02:50.714Z,0.20
2023-03-25T11:05:23.238Z,0.30
2023-03-25T11:07:54.126Z,0.40
2023-03-25T11:10:35.168Z,0.30
2023-03-25T11:13:04.639Z,0.43
2023-03-25T11:15:35.185Z,0.38
2023-03-25T11:18:22.510Z,0.20
2023-03-25T11:20:57.045Z,0.32
2023-03-25T11:23:58.295Z,0.30
2023-03-25T11:26:27.369Z,0.22
2023-03-25T11:29:04.327Z,0.38
2023-03-25T11:31:35.978Z,0.40
2023-03-25T11:34:21.571Z,0.40
2023-03-25T11:37:13.198Z,0.77
2023-03-25T11:39:41.279Z,0.30
2023-03-25T11:42:16.859Z,0.20
2023-03-25T11:47:23.383Z,0.25
2023-03-25T11:49:50.264Z,0.05
2023-03-25T11:52:21.938Z,0.17
2023-03-25T11:54:49.594Z,0.10
2023-03-25T11:57:24.508Z,0.20
2023-03-25T12:00:06.514Z,0.20
2023-03-25T12:02:40.703Z,0.10
2023-03-25T12:05:13.374Z,0.30
2023-03-25T12:07:48.628Z,0.40
2023-03-25T12:10:47.587Z,0.35
2023-03-25T12:13:19.853Z,0.25
2023-03-25T12:15:56.364Z,0.30
2023-03-25T12:18:41.920Z,0.20
2023-03-25T12:21:34.645Z,0.10
2023-03-25T12:24:17.352Z,0.40
2023-03-25T12:27:13.351Z,0.13
2023-03-25T12:29:48.716Z,0.10
2023-03-25T12:32:36.707Z,0.20
2023-03-25T12:35:14.316Z,0.10
2023-03-25T12:37:53.039Z,0.20
2023-03-25T12:40:45.022Z,0.28
2023-03-25T12:43:21.120Z,0.20
2023-03-25T12:46:10.803Z,0.32
2023-03-25T12:49:07.880Z,0.30
2023-03-25T12:51:48.212Z,0.68
2023-03-25T12:54:35.597Z,0.30
2023-03-25T12:57:07.863Z,0.40
2023-03-25T13:00:02.033Z,0.10
2023-03-25T13:02:41.508Z,0.17
2023-03-25T13:05:23.192Z,0.75
2023-03-25T13:10:24.939Z,0.00
2023-03-25T13:12:55.434Z,0.20
2023-03-25T13:15:28.213Z,0.10
2023-03-25T13:18:00.193Z,0.30
2023-03-25T13:20:32.076Z,0.25
2023-03-25T13:23:02.268Z,0.15
2023-03-25T13:25:42.967Z,0.10
2023-03-25T13:28:16.117Z,0.30
2023-03-25T13:30:45.925Z,0.22
2023-03-25T13:33:30.423Z,0.40
2023-03-25T13:36:09.614Z,0.30
2023-03-25T13:38:51.197Z,0.30
2023-03-25T13:46:39.784Z,0.20
2023-03-25T13:49:16.936Z,0.38
2023-03-25T13:51:43.676Z,0.75
2023-03-25T13:54:14.049Z,0.25
2023-03-25T13:57:10.009Z,0.30
2023-03-25T13:59:57.810Z,0.30
2023-03-25T14:02:33.215Z,0.20
2023-03-25T14:05:18.707Z,0.40
2023-03-25T14:08:09.742Z,0.20
2023-03-25T14:10:47.877Z,0.50
2023-03-25T14:13:20.006Z,0.35
2023-03-25T14:15:56.702Z,0.35
2023-03-25T14:18:23.631Z,0.40
2023-03-25T14:20:51.405Z,0.50
2023-03-25T14:23:22.583Z,0.32
2023-03-25T14:25:54.795Z,0.50
2023-03-25T14:28:38.906Z,0.30
2023-03-25T14:31:24.414Z,0.40
2023-03-25T14:34:00.115Z,0.40
2023-03-25T14:36:47.388Z,0.57
2023-03-25T14:39:34.135Z,0.50
2023-03-25T14:42:04.335Z,0.40
2023-03-25T14:45:15.614Z,0.30
2023-03-25T14:47:53.421Z,0.60
2023-03-25T14:50:20.664Z,0.10
2023-03-25T14:52:53.294Z,0.10
2023-03-25T14:55:33.006Z,0.35
2023-03-25T14:58:18.199Z,0.20
2023-03-25T15:00:53.871Z,0.13
2023-03-25T15:06:00.270Z,0.20
2023-03-25T15:08:34.197Z,0.30
2023-03-25T15:11:06.427Z,0.40
2023-03-25T15:13:42.265Z,0.15
2023-03-25T15:16:36.354Z,0.28
2023-03-25T15:22:07.714Z,0.22
2023-03-25T15:24:36.637Z,0.20
2023-03-25T15:27:25.967Z,0.52
2023-03-25T15:30:03.157Z,0.32
2023-03-25T15:32:34.143Z,0.20
2023-03-25T15:35:32.225Z,0.40
2023-03-25T15:38:16.605Z,0.28
2023-03-25T15:40:55.491Z,0.30
2023-03-25T15:43:59.509Z,0.30
2023-03-25T15:46:45.444Z,0.20
2023-03-25T15:49:37.171Z,0.60
2023-03-25T15:52:03.959Z,0.25
2023-03-25T15:54:53.164Z,0.40
2023-03-25T15:57:42.837Z,0.30
2023-03-25T16:00:29.639Z,0.70
2023-03-25T16:03:02.243Z,0.40
2023-03-25T16:05:31.492Z,0.30
2023-03-25T16:08:01.201Z,0.17
2023-03-25T16:10:31.020Z,0.30
2023-03-25T16:12:57.625Z,0.30
2023-03-25T16:15:30.284Z,0.47
2023-03-25T16:18:01.817Z,0.68
2023-03-25T16:20:32.033Z,0.32
2023-03-25T16:22:59.966Z,0.47
2023-03-25T16:25:39.202Z,0.20
2023-03-25T16:28:14.298Z,0.30
2023-03-25T16:30:43.202Z,0.40
2023-03-25T16:33:13.954Z,0.30
2023-03-25T16:35:43.979Z,0.22
2023-03-25T16:38:17.736Z,0.30
2023-03-25T16:40:46.852Z,0.32
2023-03-25T16:43:13.661Z,0.57
2023-03-25T16:45:40.923Z,0.30
2023-03-25T16:48:23.849Z,0.38
2023-03-25T16:50:54.458Z,0.30
2023-03-25T16:53:22.592Z,0.28
2023-03-25T16:56:09.437Z,0.50
2023-03-25T16:58:47.964Z,0.38
2023-03-25T17:01:15.995Z,0.38
2023-03-25T17:03:46.364Z,0.32
2023-03-25T17:06:29.332Z,0.50
2023-03-25T17:08:58.808Z,0.30
2023-03-25T17:11:29.064Z,0.30
2023-03-25T17:14:02.538Z,0.20
2023-03-25T17:16:32.966Z,0.63
2023-03-25T17:19:01.337Z,0.40
2023-03-25T17:21:31.120Z,0.60
2023-03-25T17:24:06.580Z,0.60
2023-03-25T17:26:53.237Z,0.52
2023-03-25T17:29:20.299Z,0.40
2023-03-25T17:31:55.406Z,0.65
2023-03-25T17:34:24.117Z,0.40
2023-03-25T17:36:58.513Z,1.02
2023-03-25T17:39:29.061Z,0.75
2023-03-25T17:42:02.971Z,0.57
2023-03-25T17:44:37.374Z,0.50
2023-03-25T17:47:05.530Z,0.45
2023-03-25T17:49:32.403Z,0.60
2023-03-25T17:51:58.960Z,0.65
2023-03-25T17:54:26.023Z,0.60
2023-03-25T17:56:53.098Z,0.55
2023-03-25T17:59:22.267Z,0.70
2023-03-25T18:01:50.070Z,0.60
2023-03-25T18:04:18.167Z,0.60
2023-03-25T18:06:44.882Z,0.70
2023-03-25T18:09:16.999Z,0.73
2023-03-25T18:11:48.483Z,0.50
2023-03-25T18:14:15.362Z,0.57
2023-03-25T18:16:42.072Z,0.60
2023-03-25T18:19:18.103Z,0.52
2023-03-25T18:21:45.551Z,1.02
2023-03-25T18:24:13.524Z,1.05
2023-03-25T18:26:43.997Z,0.82
2023-03-25T18:29:18.575Z,0.90
2023-03-25T18:31:45.446Z,0.63
2023-03-25T18:34:13.113Z,0.70
2023-03-25T18:36:40.611Z,1.23
2023-03-25T18:39:12.768Z,0.63
2023-03-25T18:41:39.445Z,0.43
2023-03-25T18:44:06.111Z,0.40
2023-03-25T18:46:32.656Z,0.60
2023-03-25T18:49:02.551Z,0.60
2023-03-25T18:51:31.239Z,0.50
2023-03-25T18:53:58.072Z,0.43
2023-03-25T18:56:25.422Z,0.70
2023-03-25T18:58:52.941Z,0.65
2023-03-25T19:01:21.677Z,0.73
2023-03-25T19:03:50.511Z,0.70
2023-03-25T19:06:18.771Z,0.68
2023-03-25T19:08:47.445Z,0.73
2023-03-25T19:11:21.210Z,0.80
2023-03-25T19:13:49.428Z,0.82
2023-03-25T19:16:16.076Z,0.93
2023-03-25T19:18:42.789Z,0.52
2023-03-25T19:21:10.537Z,0.45
2023-03-25T19:23:37.640Z,0.70
2023-03-25T19:26:04.395Z,0.50
2023-03-25T19:28:31.084Z,0.73
2023-03-25T19:31:00.433Z,0.60
2023-03-25T19:35:59.707Z,0.47
2023-03-25T19:38:26.332Z,0.40
2023-03-25T19:41:09.169Z,0.40
2023-03-25T19:43:36.188Z,0.40
2023-03-25T19:46:03.809Z,0.80
2023-03-25T19:48:30.570Z,0.40
2023-03-25T19:50:57.868Z,0.63
2023-03-25T19:53:26.118Z,0.60
2023-03-25T19:55:53.438Z,0.38
2023-03-25T19:58:22.730Z,0.40
2023-03-25T20:03:16.672Z,0.45
2023-03-25T20:05:43.648Z,0.40
2023-03-25T20:08:11.718Z,0.40
2023-03-25T20:10:39.246Z,0.22
2023-03-25T20:13:06.173Z,0.20
2023-03-25T20:15:33.359Z,0.10
2023-03-25T20:18:00.244Z,0.40
2023-03-25T20:20:26.964Z,0.20
2023-03-25T20:22:53.563Z,0.20
2023-03-25T20:25:20.436Z,0.70
2023-03-25T20:27:47.321Z,0.63
2023-03-25T20:30:17.463Z,0.30
2023-03-25T20:32:46.584Z,0.57
2023-03-25T20:35:16.290Z,0.60
2023-03-25T20:37:44.673Z,0.38
2023-03-25T20:40:15.458Z,0.22
2023-03-25T20:42:44.412Z,0.57
2023-03-25T20:45:13.943Z,0.50
2023-03-25T20:47:41.627Z,0.68
2023-03-25T20:50:09.813Z,0.52
2023-03-25T20:52:38.098Z,0.32
2023-03-25T20:55:05.992Z,0.22
2023-03-25T20:57:33.329Z,0.30
2023-03-25T20:59:59.925Z,0.90
2023-03-25T21:02:27.147Z,0.50
2023-03-25T21:04:56.856Z,0.30
2023-03-25T21:07:27.755Z,0.43
2023-03-25T21:09:55.075Z,0.32
2023-03-25T21:12:27.158Z,0.43
2023-03-25T21:14:59.912Z,0.30
2023-03-25T21:17:27.870Z,0.45
2023-03-25T21:19:54.902Z,0.55
2023-03-25T21:22:21.970Z,0.47
2023-03-25T21:24:48.518Z,0.50
2023-03-25T21:27:17.433Z,1.00
2023-03-25T21:29:44.245Z,0.57
2023-03-25T21:32:11.096Z,0.60
2023-03-25T21:34:40.587Z,0.50
2023-03-25T21:39:33.697Z,0.47
2023-03-25T21:42:00.504Z,0.85
2023-03-25T21:44:37.373Z,0.73
2023-03-25T21:47:08.613Z,0.95
2023-03-25T21:49:35.420Z,0.90
2023-03-25T21:52:02.116Z,0.60
2023-03-25T21:54:30.464Z,0.90
2023-03-25T21:56:57.152Z,0.73
2023-03-25T21:59:23.813Z,0.70
2023-03-25T22:01:52.762Z,0.55
2023-03-25T22:04:19.516Z,0.52
2023-03-25T22:06:46.432Z,0.50
2023-03-25T22:09:13.118Z,0.93
2023-03-25T22:11:39.949Z,0.52
2023-03-25T22:14:08.047Z,0.28
2023-03-25T22:16:34.806Z,0.50
2023-03-25T22:19:02.010Z,0.45
2023-03-25T22:21:33.165Z,0.28
2023-03-25T22:24:01.695Z,0.50
2023-03-25T22:26:30.619Z,0.55
2023-03-25T22:29:03.090Z,0.52
2023-03-25T22:31:32.418Z,0.63
2023-03-25T22:34:03.941Z,0.50
2023-03-25T22:36:33.109Z,0.40
2023-03-25T22:39:00.612Z,0.38
2023-03-25T22:41:27.831Z,0.73
2023-03-25T22:43:55.889Z,0.60
2023-03-25T22:46:23.317Z,0.50
2023-03-25T22:48:50.385Z,0.38
2023-03-25T22:51:19.314Z,0.80
2023-03-25T22:53:46.636Z,0.50
2023-03-25T22:56:13.380Z,0.55
2023-03-25T22:58:40.848Z,0.32
2023-03-25T23:01:23.635Z,0.35
2023-03-25T23:03:51.639Z,0.80
2023-03-25T23:06:19.108Z,0.50
2023-03-25T23:08:46.172Z,0.30
2023-03-25T23:11:26.003Z,0.65
2023-03-25T23:14:02.283Z,0.20
2023-03-25T23:16:30.901Z,0.28
2023-03-25T23:18:58.203Z,0.35
2023-03-25T23:21:27.625Z,0.28
2023-03-25T23:26:36.577Z,0.50
2023-03-25T23:29:05.972Z,1.00
2023-03-25T23:31:35.598Z,0.45
2023-03-25T23:34:07.212Z,0.52
2023-03-25T23:36:36.411Z,0.32
2023-03-25T23:39:06.822Z,0.30
2023-03-25T23:41:34.095Z,0.60
2023-03-25T23:44:01.163Z,0.57
2023-03-25T23:46:27.827Z,0.75
2023-03-25T23:49:02.325Z,0.63
2023-03-25T23:51:36.796Z,0.30
2023-03-25T23:54:05.828Z,0.60
2023-03-25T23:56:33.381Z,0.55
2023-03-25T23:59:00.947Z,0.60
